Aeroporto :
LOGIN :

Iscrizione | Disclaimer

   EN    FR    IT 

 










Sommario :    VFR   VFR Marginale   IFR   IFR Intensivo   IFR Molto Intensivo
Visibilità : 
Base nubi : 
>= 8 km
>= 3000ft
5 / 8 km
1000 / 3000 ft
1500m / 5 km
500 / 1000 ft
800 / 1500m
200 / 500 ft
< 800m
< 200 ft
Simboli :   Temporali  Nebbia  Neve Forte  Precipitazioni Forti  Vento > 20 kt
SIGMETs :   Varie  Temporali  Ghiacco  Turbolenza  Onda orograficha  Ceneri Vulcaniche






- Altitudine del aeroporto : 79 ft
- Codice IATA : NSY


LICZ - Sigonella (Mil) Catania

ULTIMO METAR :
  • 050955Z 32017KT 9999 FEW020 18/02 Q1015 RMK FEW VIS MIN 9999 WIND THR28 32018KT WIND THR10 33012KT A2999 BLU

METARs OBSOLETI :
  • 050855Z 31015KT CAVOK 12/M02 Q1015 RMK SKC VIS MIN 9999 WIND THR28 30016KT WIND THR10 30013KT A2999 BLU

TAF TAF LICZ
Valido dal 05 a 06 ore il 06 a 06 ore UTC


050500Z 0506/0606 28012KT 9999 FEW050
BECMG 0520/0522 VRB03KT
PROB30
TEMPO 0600/0606 5000 BR



MetMap, La meteo Aeronautica in un colpo d'occhio ! - Copyright ORBIFLY Dicembre 2007 - Disclaimer

ORBIFLY MET'MAP TEAM :

Programmazione e sviluppo : Alexandra Zaïnal
Concezione : Baudouin d'Aumeries
Aiuto per la programmazione : Marc-Olivier Méhu
Supporto tecnico e logistico : Manuel Goepfert
Aiuto per la traduzione : Arnaldo La Scala

Contatto : metmap@orbifly.com




FONTI E CREDITI :

   NOAA